createdAt,value
2022-12-01T00:01:40.090Z,102411.00
2022-12-01T00:04:08.866Z,102412.97
2022-12-01T00:06:37.987Z,102417.06
2022-12-01T00:09:23.766Z,102415.88
2022-12-01T00:11:52.157Z,102408.84
2022-12-01T00:14:20.563Z,102419.25
2022-12-01T00:16:50.512Z,102421.63
2022-12-01T00:19:18.972Z,102419.06
2022-12-01T00:21:47.497Z,102416.75
2022-12-01T00:24:16.025Z,102411.63
2022-12-01T00:26:44.450Z,102410.13
2022-12-01T00:29:12.854Z,102409.84
2022-12-01T00:31:41.468Z,102417.88
2022-12-01T00:34:22.327Z,102420.75
2022-12-01T00:36:50.733Z,102418.66
2022-12-01T00:39:19.152Z,102417.31
2022-12-01T00:41:47.564Z,102418.06
2022-12-01T00:44:15.955Z,102420.47
2022-12-01T00:46:44.313Z,102420.81
2022-12-01T00:49:15.534Z,102420.25
2022-12-01T00:51:43.913Z,102416.31
2022-12-01T00:54:12.408Z,102417.50
2022-12-01T00:56:40.789Z,102421.41
2022-12-01T00:59:09.283Z,102421.69
2022-12-01T01:01:37.716Z,102420.94
2022-12-01T01:04:06.785Z,102432.22
2022-12-01T01:06:36.531Z,102430.41
2022-12-01T01:09:05.105Z,102432.66
2022-12-01T01:11:33.610Z,102432.53
2022-12-01T01:14:02.021Z,102429.19
2022-12-01T01:16:31.304Z,102432.66
2022-12-01T01:18:59.842Z,102436.41
2022-12-01T01:21:28.985Z,102432.47
2022-12-01T01:23:58.866Z,102433.34
2022-12-01T01:26:29.220Z,102429.44
2022-12-01T01:28:58.594Z,102436.53
2022-12-01T01:31:28.473Z,102427.00
2022-12-01T01:33:57.828Z,102432.91
2022-12-01T01:36:27.796Z,102432.28
2022-12-01T01:38:56.399Z,102432.44
2022-12-01T01:41:26.486Z,102435.75
2022-12-01T01:43:56.392Z,102436.78
2022-12-01T01:46:27.363Z,102431.19
2022-12-01T01:49:00.178Z,102430.91
2022-12-01T01:51:34.746Z,102436.38
2022-12-01T01:54:06.945Z,102435.81
2022-12-01T01:56:38.028Z,102436.69
2022-12-01T01:59:06.961Z,102438.22
2022-12-01T02:01:35.462Z,102438.47
2022-12-01T02:04:04.393Z,102427.63
2022-12-01T02:06:32.933Z,102428.84
2022-12-01T02:09:01.367Z,102423.09
2022-12-01T02:12:00.809Z,102423.72
2022-12-01T02:14:56.933Z,102420.09
2022-12-01T02:17:41.421Z,102416.81
2022-12-01T02:20:37.509Z,102414.69
2022-12-01T02:23:39.611Z,102416.75
2022-12-01T02:26:26.021Z,102416.75
2022-12-01T02:29:06.071Z,102416.69
2022-12-01T02:31:42.676Z,102417.72
2022-12-01T02:34:15.974Z,102419.50
2022-12-01T02:36:49.855Z,102405.16
2022-12-01T02:39:23.989Z,102417.97
2022-12-01T02:41:57.650Z,102400.56
2022-12-01T02:44:31.537Z,102412.44
2022-12-01T02:47:06.448Z,102400.59
2022-12-01T02:49:37.642Z,102409.34
2022-12-01T02:52:07.810Z,102411.63
2022-12-01T02:54:37.010Z,102418.69
2022-12-01T02:57:05.444Z,102413.59
2022-12-01T02:59:33.916Z,102413.34
2022-12-01T03:02:12.834Z,102411.50
2022-12-01T03:05:01.002Z,102409.25
2022-12-01T03:07:52.648Z,102409.56
2022-12-01T03:10:27.682Z,102407.97
2022-12-01T03:13:07.862Z,102407.97
2022-12-01T03:15:41.493Z,102406.34
2022-12-01T03:18:25.199Z,102409.34
2022-12-01T03:21:00.036Z,102415.97
2022-12-01T03:23:33.775Z,102413.16
2022-12-01T03:26:07.041Z,102409.97
2022-12-01T03:28:41.134Z,102414.47
2022-12-01T03:31:16.090Z,102416.28
2022-12-01T03:33:48.958Z,102410.13
2022-12-01T03:36:23.165Z,102411.78
2022-12-01T03:38:57.111Z,102409.72
2022-12-01T03:41:29.718Z,102406.72
2022-12-01T03:44:05.234Z,102411.88
2022-12-01T03:46:41.250Z,102410.50
2022-12-01T03:49:11.465Z,102414.25
2022-12-01T03:51:49.471Z,102426.28
2022-12-01T03:54:22.846Z,102424.81
2022-12-01T03:56:56.690Z,102426.28
2022-12-01T03:59:27.581Z,102417.28
2022-12-01T04:01:56.301Z,102425.53
2022-12-01T04:04:26.238Z,102416.50
2022-12-01T04:06:54.831Z,102418.78
2022-12-01T04:09:23.374Z,102423.47
2022-12-01T04:12:09.090Z,102418.78
2022-12-01T04:14:37.465Z,102420.44
2022-12-01T04:17:05.942Z,102428.47
2022-12-01T04:19:35.715Z,102429.66
2022-12-01T04:22:04.867Z,102431.94
2022-12-01T04:24:33.252Z,102432.09
2022-12-01T04:27:01.624Z,102429.38
2022-12-01T04:29:30.047Z,102431.78
2022-12-01T04:31:58.462Z,102422.44
2022-12-01T04:34:26.839Z,102428.75
2022-12-01T04:36:56.621Z,102426.34
2022-12-01T04:39:25.032Z,102420.00
2022-12-01T04:41:53.381Z,102435.69
2022-12-01T04:44:21.794Z,102431.16
2022-12-01T04:46:52.402Z,102431.47
2022-12-01T04:49:21.635Z,102437.63
2022-12-01T04:51:50.562Z,102449.22
2022-12-01T04:54:20.395Z,102439.47
2022-12-01T04:56:48.836Z,102442.91
2022-12-01T04:59:17.461Z,102450.28
2022-12-01T05:01:46.728Z,102451.22
2022-12-01T05:04:15.511Z,102452.00
2022-12-01T05:06:44.794Z,102453.63
2022-12-01T05:09:17.598Z,102448.06
2022-12-01T05:11:47.780Z,102446.13
2022-12-01T05:14:16.166Z,102447.78
2022-12-01T05:16:44.612Z,102452.72
2022-12-01T05:19:30.882Z,102453.81
2022-12-01T05:21:59.297Z,102453.19
2022-12-01T05:24:27.735Z,102449.88
2022-12-01T05:26:57.513Z,102458.91
2022-12-01T05:29:25.904Z,102457.38
2022-12-01T05:31:54.409Z,102459.50
2022-12-01T05:34:22.848Z,102452.13
2022-12-01T05:36:51.207Z,102461.00
2022-12-01T05:39:19.582Z,102463.69
2022-12-01T05:41:48.017Z,102468.22
2022-12-01T05:44:18.018Z,102464.63
2022-12-01T05:46:46.495Z,102468.81
2022-12-01T05:49:15.111Z,102470.50
2022-12-01T05:51:43.723Z,102468.38
2022-12-01T05:54:12.109Z,102463.25
2022-12-01T05:56:40.695Z,102467.94
2022-12-01T05:59:09.064Z,102468.22
2022-12-01T06:01:38.908Z,102466.13
2022-12-01T06:04:08.803Z,102470.31
2022-12-01T06:06:37.212Z,102469.72
2022-12-01T06:09:05.995Z,102468.69
2022-12-01T06:11:34.332Z,102471.69
2022-12-01T06:14:02.773Z,102471.38
2022-12-01T06:16:31.227Z,102464.19
2022-12-01T06:19:01.073Z,102473.81
2022-12-01T06:21:29.461Z,102468.53
2022-12-01T06:23:57.849Z,102464.91
2022-12-01T06:26:26.251Z,102473.19
2022-12-01T06:28:54.638Z,102476.94
2022-12-01T06:31:23.139Z,102472.75
2022-12-01T06:33:51.534Z,102469.09
2022-12-01T06:36:21.311Z,102479.69
2022-12-01T06:38:49.705Z,102482.53
2022-12-01T06:41:18.066Z,102485.69
2022-12-01T06:43:46.469Z,102484.19
2022-12-01T06:46:14.925Z,102485.53
2022-12-01T06:48:43.365Z,102486.88
2022-12-01T06:51:11.767Z,102491.25
2022-12-01T06:53:41.494Z,102487.31
2022-12-01T06:56:10.171Z,102489.66
2022-12-01T06:58:38.574Z,102497.34
2022-12-01T07:01:10.997Z,102494.66
2022-12-01T07:03:39.684Z,102495.59
2022-12-01T07:06:08.133Z,102496.81
2022-12-01T07:08:36.791Z,102492.00
2022-12-01T07:11:08.385Z,102502.09
2022-12-01T07:13:37.265Z,102492.00
2022-12-01T07:16:06.747Z,102488.69
2022-12-01T07:18:37.014Z,102492.59
2022-12-01T07:21:07.530Z,102495.59
2022-12-01T07:23:36.345Z,102496.63
2022-12-01T07:26:08.176Z,102488.06
2022-12-01T07:28:36.601Z,102494.38
2022-12-01T07:31:06.045Z,102500.09
2022-12-01T07:33:34.482Z,102497.72
2022-12-01T07:36:03.411Z,102498.31
2022-12-01T07:38:32.434Z,102503.13
2022-12-01T07:41:04.917Z,102502.53
2022-12-01T07:43:35.433Z,102507.03
2022-12-01T07:46:08.711Z,102500.13
2022-12-01T07:48:38.849Z,102511.88
2022-12-01T07:51:08.277Z,102517.25
2022-12-01T07:53:37.007Z,102515.88
2022-12-01T07:56:08.753Z,102512.44
2022-12-01T07:58:38.995Z,102510.91
2022-12-01T08:01:08.399Z,102514.56
2022-12-01T08:03:37.353Z,102511.53
2022-12-01T08:06:07.514Z,102520.72
2022-12-01T08:08:37.093Z,102519.06
2022-12-01T08:11:07.865Z,102516.97
2022-12-01T08:13:36.228Z,102521.47
2022-12-01T08:16:07.382Z,102515.13
2022-12-01T08:18:36.536Z,102516.03
2022-12-01T08:21:05.671Z,102518.72
2022-12-01T08:23:34.744Z,102522.34
2022-12-01T08:26:03.193Z,102521.72
2022-12-01T08:28:31.747Z,102525.97
2022-12-01T08:31:00.212Z,102531.22
2022-12-01T08:33:30.202Z,102522.97
2022-12-01T08:36:02.546Z,102531.41
2022-12-01T08:38:30.995Z,102526.59
2022-12-01T08:41:01.655Z,102528.66
2022-12-01T08:43:55.934Z,102528.41
2022-12-01T08:46:18.668Z,102522.09
2022-12-01T08:48:48.469Z,102525.09
2022-12-01T08:51:19.115Z,102526.28
2022-12-01T08:53:49.772Z,102521.47
2022-12-01T08:56:21.619Z,102526.28
2022-12-01T08:58:51.095Z,102529.91
2022-12-01T09:01:21.416Z,102532.31
2022-12-01T09:04:05.240Z,102532.94
2022-12-01T09:06:35.532Z,102532.63
2022-12-01T09:09:03.915Z,102528.13
2022-12-01T09:11:32.310Z,102539.28
2022-12-01T09:14:01.056Z,102537.91
2022-12-01T09:16:29.579Z,102534.41
2022-12-01T09:18:59.569Z,102528.69
2022-12-01T09:21:31.398Z,102530.03
2022-12-01T09:24:00.638Z,102528.69
2022-12-01T09:26:29.493Z,102537.13
2022-12-01T09:28:59.962Z,102531.41
2022-12-01T09:31:28.996Z,102527.81
2022-12-01T09:34:00.248Z,102531.56
2022-12-01T09:36:29.849Z,102519.69
2022-12-01T09:38:58.726Z,102528.09
2022-12-01T09:41:31.332Z,102519.38
2022-12-01T09:44:05.725Z,102525.53
2022-12-01T09:46:35.525Z,102525.41
2022-12-01T09:49:07.575Z,102517.84
2022-12-01T09:51:37.563Z,102522.25
2022-12-01T09:54:07.875Z,102518.16
2022-12-01T09:56:43.659Z,102524.81
2022-12-01T09:59:19.814Z,102520.25
2022-12-01T10:01:52.372Z,102523.09
2022-12-01T10:04:28.753Z,102524.75
2022-12-01T10:07:01.736Z,102521.72
2022-12-01T10:09:37.548Z,102521.38
2022-12-01T10:12:15.359Z,102506.94
2022-12-01T10:14:46.390Z,102505.09
2022-12-01T10:17:25.437Z,102510.22
2022-12-01T10:20:02.270Z,102503.59
2022-12-01T10:23:04.198Z,102505.97
2022-12-01T10:25:38.618Z,102510.84
2022-12-01T10:28:13.571Z,102517.19
2022-12-01T10:30:50.593Z,102514.47
2022-12-01T10:33:28.382Z,102508.72
2022-12-01T10:35:59.094Z,102499.81
2022-12-01T10:38:29.894Z,102513.25
2022-12-01T10:41:01.471Z,102510.69
2022-12-01T10:43:35.002Z,102507.19
2022-12-01T10:46:13.128Z,102498.47
2022-12-01T10:48:55.019Z,102492.41
2022-12-01T10:51:25.933Z,102487.88
2022-12-01T10:54:00.254Z,102488.91
2022-12-01T10:56:29.219Z,102488.44
2022-12-01T10:59:00.932Z,102486.44
2022-12-01T11:01:32.168Z,102477.22
2022-12-01T11:04:06.855Z,102477.59
2022-12-01T11:06:38.538Z,102476.41
2022-12-01T11:09:20.263Z,102478.25
2022-12-01T11:11:57.835Z,102485.47
2022-12-01T11:14:34.866Z,102481.25
2022-12-01T11:17:17.414Z,102483.06
2022-12-01T11:19:45.906Z,102484.25
2022-12-01T11:22:24.152Z,102484.97
2022-12-01T11:25:02.314Z,102475.13
2022-12-01T11:27:35.060Z,102472.72
2022-12-01T11:30:08.417Z,102478.16
2022-12-01T11:32:39.585Z,102469.69
2022-12-01T11:35:18.149Z,102468.03
2022-12-01T11:38:21.054Z,102476.06
2022-12-01T11:40:47.847Z,102472.16
2022-12-01T11:43:25.785Z,102470.50
2022-12-01T11:45:55.637Z,102477.13
2022-12-01T11:48:26.814Z,102467.50
2022-12-01T11:51:04.351Z,102470.41
2022-12-01T11:53:36.321Z,102481.41
2022-12-01T11:56:17.052Z,102469.06
2022-12-01T11:58:47.723Z,102472.25
2022-12-01T12:01:24.761Z,102472.09
2022-12-01T12:04:03.167Z,102468.31
2022-12-01T12:06:40.635Z,102468.00
2022-12-01T12:09:52.638Z,102465.84
2022-12-01T12:12:37.186Z,102464.66
2022-12-01T12:15:19.736Z,102461.03
2022-12-01T12:18:09.450Z,102464.22
2022-12-01T12:20:47.019Z,102459.84
2022-12-01T12:23:37.450Z,102459.22
2022-12-01T12:26:15.551Z,102468.88
2022-12-01T12:28:59.505Z,102461.03
2022-12-01T12:31:36.337Z,102456.78
2022-12-01T12:34:22.921Z,102466.16
2022-12-01T12:37:05.670Z,102463.09
2022-12-01T12:39:52.114Z,102455.41
2022-12-01T12:42:34.774Z,102459.03
2022-12-01T12:45:15.349Z,102456.47
2022-12-01T12:47:59.250Z,102460.53
2022-12-01T12:50:35.713Z,102451.03
2022-12-01T12:53:11.481Z,102455.13
2022-12-01T12:55:42.614Z,102461.03
2022-12-01T12:58:17.278Z,102451.94
2022-12-01T13:00:51.562Z,102448.47
2022-12-01T13:03:30.600Z,102454.22
2022-12-01T13:06:07.984Z,102449.84
2022-12-01T13:08:40.681Z,102446.09
2022-12-01T13:11:15.333Z,102445.63
2022-12-01T13:13:55.649Z,102452.56
2022-12-01T13:16:29.392Z,102458.88
2022-12-01T13:19:05.024Z,102454.78
2022-12-01T13:21:40.474Z,102449.94
2022-12-01T13:24:12.249Z,102454.59
2022-12-01T13:26:44.300Z,102449.47
2022-12-01T13:29:18.100Z,102451.91
2022-12-01T13:31:48.919Z,102459.59
2022-12-01T13:34:23.939Z,102448.56
2022-12-01T13:36:55.012Z,102449.75
2022-12-01T13:39:28.912Z,102449.13
2022-12-01T13:42:03.483Z,102454.56
2022-12-01T13:44:40.738Z,102454.56
2022-12-01T13:47:40.643Z,102450.44
2022-12-01T13:50:55.241Z,102446.34
2022-12-01T13:53:31.229Z,102452.25
2022-12-01T13:56:05.920Z,102452.41
2022-12-01T13:58:52.883Z,102447.25
2022-12-01T14:01:50.563Z,102454.34
2022-12-01T14:04:32.474Z,102445.88
2022-12-01T14:07:24.774Z,102447.81
2022-12-01T14:09:55.066Z,102448.75
2022-12-01T14:12:29.135Z,102447.81
2022-12-01T14:15:01.057Z,102435.78
2022-12-01T14:17:33.806Z,102444.84
2022-12-01T14:20:09.840Z,102434.03
2022-12-01T14:22:42.053Z,102438.00
2022-12-01T14:25:25.678Z,102438.09
2022-12-01T14:27:57.645Z,102440.19
2022-12-01T14:31:13.794Z,102441.22
2022-12-01T14:33:52.146Z,102449.97
2022-12-01T14:36:33.493Z,102443.66
2022-12-01T14:39:06.513Z,102440.66
2022-12-01T14:41:43.333Z,102443.72
2022-12-01T14:44:24.113Z,102442.19
2022-12-01T14:46:59.606Z,102440.41
2022-12-01T14:49:33.526Z,102437.06
2022-12-01T14:52:06.752Z,102442.50
2022-12-01T14:54:48.311Z,102442.00
2022-12-01T14:57:22.606Z,102444.09
2022-12-01T15:00:04.593Z,102440.75
2022-12-01T15:02:53.664Z,102440.34
2022-12-01T15:05:27.286Z,102436.59
2022-12-01T15:08:18.754Z,102435.44
2022-12-01T15:10:52.278Z,102431.94
2022-12-01T15:13:23.665Z,102431.94
2022-12-01T15:15:54.029Z,102431.94
2022-12-01T15:18:23.968Z,102428.63
2022-12-01T15:21:01.018Z,102428.13
2022-12-01T15:23:29.459Z,102432.50
2022-12-01T15:25:58.421Z,102434.59
2022-12-01T15:28:32.349Z,102437.31
2022-12-01T15:31:02.751Z,102436.38
2022-12-01T15:33:37.200Z,102428.69
2022-12-01T15:36:08.864Z,102426.44
2022-12-01T15:38:39.127Z,102426.44
2022-12-01T15:44:00.630Z,102423.28
2022-12-01T15:46:30.816Z,102425.56
2022-12-01T15:49:10.855Z,102424.41
2022-12-01T15:51:43.801Z,102423.84
2022-12-01T15:54:20.614Z,102431.94
2022-12-01T15:56:55.695Z,102433.59
2022-12-01T15:59:29.928Z,102431.66
2022-12-01T16:01:59.060Z,102432.28
2022-12-01T16:04:33.496Z,102427.75
2022-12-01T16:07:06.491Z,102435.19
2022-12-01T16:09:37.900Z,102430.53
2022-12-01T16:12:25.143Z,102430.25
2022-12-01T16:15:12.638Z,102427.56
2022-12-01T16:17:45.125Z,102434.19
2022-12-01T16:20:19.231Z,102437.66
2022-12-01T16:22:53.299Z,102431.75
2022-12-01T16:25:29.015Z,102424.22
2022-12-01T16:27:58.845Z,102432.69
2022-12-01T16:30:30.298Z,102427.56
2022-12-01T16:33:04.032Z,102429.06
2022-12-01T16:35:34.730Z,102427.59
2022-12-01T16:38:13.326Z,102430.00
2022-12-01T16:40:42.680Z,102432.13
2022-12-01T16:43:14.909Z,102427.78
2022-12-01T16:45:43.812Z,102434.28
2022-12-01T16:48:12.683Z,102435.81
2022-12-01T16:50:41.391Z,102433.09
2022-12-01T16:53:14.051Z,102439.13
2022-12-01T16:55:44.648Z,102437.75
2022-12-01T16:58:13.310Z,102442.09
2022-12-01T17:00:58.656Z,102432.75
2022-12-01T17:04:07.387Z,102437.75
2022-12-01T17:06:41.886Z,102431.09
2022-12-01T17:09:11.643Z,102435.59
2022-12-01T17:11:40.057Z,102436.38
2022-12-01T17:14:09.184Z,102434.13
2022-12-01T17:16:38.282Z,102440.16
2022-12-01T17:19:06.756Z,102432.31
2022-12-01T17:21:35.166Z,102436.69
2022-12-01T17:24:04.190Z,102433.25
2022-12-01T17:26:34.102Z,102421.03
2022-12-01T17:29:03.105Z,102433.09
2022-12-01T17:31:31.777Z,102430.13
2022-12-01T17:34:00.423Z,102438.53
2022-12-01T17:36:28.917Z,102440.63
2022-12-01T17:38:58.767Z,102429.19
2022-12-01T17:41:34.929Z,102429.66
2022-12-01T17:44:05.958Z,102423.19
2022-12-01T17:46:34.509Z,102428.78
2022-12-01T17:49:08.581Z,102428.06
2022-12-01T17:51:37.079Z,102431.03
2022-12-01T17:54:05.839Z,102422.75
2022-12-01T17:56:34.795Z,102425.28
2022-12-01T17:59:10.299Z,102419.41
2022-12-01T18:01:43.479Z,102423.66
2022-12-01T18:04:12.122Z,102425.28
2022-12-01T18:06:40.698Z,102423.03
2022-12-01T18:09:09.298Z,102421.97
2022-12-01T18:11:38.339Z,102428.00
2022-12-01T18:14:08.361Z,102425.59
2022-12-01T18:16:36.840Z,102419.88
2022-12-01T18:19:05.718Z,102424.38
2022-12-01T18:21:34.132Z,102419.66
2022-12-01T18:24:04.255Z,102421.63
2022-12-01T18:26:34.196Z,102427.50
2022-12-01T18:29:04.888Z,102421.63
2022-12-01T18:31:35.406Z,102425.56
2022-12-01T18:34:06.860Z,102416.94
2022-12-01T18:36:44.905Z,102418.63
2022-12-01T18:39:13.460Z,102420.44
2022-12-01T18:41:41.862Z,102414.41
2022-12-01T18:44:10.354Z,102411.38
2022-12-01T18:46:40.336Z,102409.22
2022-12-01T18:49:09.182Z,102402.59
2022-12-01T18:51:39.029Z,102408.91
2022-12-01T18:54:08.937Z,102417.00
2022-12-01T18:56:37.332Z,102411.00
2022-12-01T18:59:08.703Z,102423.91
2022-12-01T19:01:39.961Z,102415.63
2022-12-01T19:04:10.756Z,102418.19
2022-12-01T19:06:41.225Z,102418.06
2022-12-01T19:09:12.563Z,102423.31
2022-12-01T19:11:41.935Z,102410.22
2022-12-01T19:14:14.491Z,102415.50
2022-12-01T19:16:43.179Z,102420.47
2022-12-01T19:19:12.989Z,102416.13
2022-12-01T19:21:41.604Z,102411.88
2022-12-01T19:24:10.017Z,102403.41
2022-12-01T19:26:38.893Z,102413.06
2022-12-01T19:29:07.304Z,102410.63
2022-12-01T19:31:35.776Z,102412.72
2022-12-01T19:34:04.666Z,102409.25
2022-12-01T19:36:34.754Z,102414.38
2022-12-01T19:39:06.026Z,102408.50
2022-12-01T19:41:36.005Z,102413.50
2022-12-01T19:44:04.533Z,102416.19
2022-12-01T19:46:32.920Z,102410.31
2022-12-01T19:49:02.934Z,102419.81
2022-12-01T19:51:36.060Z,102415.44
2022-12-01T19:54:06.422Z,102411.50
2022-12-01T19:56:34.880Z,102420.84
2022-12-01T19:59:03.330Z,102427.91
2022-12-01T20:01:31.844Z,102428.97
2022-12-01T20:04:00.822Z,102433.47
2022-12-01T20:06:31.914Z,102424.09
2022-12-01T20:09:02.942Z,102423.97
2022-12-01T20:11:33.530Z,102434.34
2022-12-01T20:14:03.230Z,102433.34
2022-12-01T20:16:32.189Z,102429.09
2022-12-01T20:19:02.725Z,102431.03
2022-12-01T20:21:32.762Z,102426.66
2022-12-01T20:24:04.142Z,102424.47
2022-12-01T20:26:35.145Z,102430.31
2022-12-01T20:29:05.878Z,102435.75
2022-12-01T20:31:35.360Z,102426.25
2022-12-01T20:34:06.951Z,102428.06
2022-12-01T20:36:35.985Z,102425.78
2022-12-01T20:39:07.628Z,102423.78
2022-12-01T20:41:36.617Z,102423.94
2022-12-01T20:44:07.643Z,102422.25
2022-12-01T20:46:37.235Z,102419.97
2022-12-01T20:49:06.407Z,102423.41
2022-12-01T20:51:35.030Z,102423.72
2022-12-01T20:54:27.425Z,102421.16
2022-12-01T20:56:55.295Z,102428.84
2022-12-01T20:59:23.817Z,102422.81
2022-12-01T21:01:52.281Z,102422.31
2022-12-01T21:04:20.653Z,102415.88
2022-12-01T21:06:50.071Z,102416.78
2022-12-01T21:09:19.905Z,102414.06
2022-12-01T21:12:08.299Z,102418.16
2022-12-01T21:14:38.669Z,102418.66
2022-12-01T21:17:19.823Z,102416.84
2022-12-01T21:19:54.534Z,102420.78
2022-12-01T21:22:23.158Z,102420.50
2022-12-01T21:24:53.394Z,102418.56
2022-12-01T21:27:22.029Z,102421.13
2022-12-01T21:29:51.337Z,102419.59
2022-12-01T21:32:24.986Z,102419.88
2022-12-01T21:34:56.582Z,102418.09
2022-12-01T21:37:26.308Z,102415.53
2022-12-01T21:39:58.081Z,102414.31
2022-12-01T21:42:28.103Z,102417.94
2022-12-01T21:44:56.981Z,102409.06
2022-12-01T21:47:28.246Z,102404.69
2022-12-01T21:49:58.950Z,102404.69
2022-12-01T21:52:36.667Z,102402.41
2022-12-01T21:55:36.088Z,102401.66
2022-12-01T21:58:20.992Z,102396.38
2022-12-01T22:00:49.457Z,102401.78
2022-12-01T22:03:32.548Z,102391.69
2022-12-01T22:08:54.810Z,102393.97
2022-12-01T22:11:26.115Z,102395.13
2022-12-01T22:14:00.607Z,102396.34
2022-12-01T22:16:31.261Z,102386.72
2022-12-01T22:19:02.141Z,102390.00
2022-12-01T22:21:36.036Z,102395.03
2022-12-01T22:24:22.494Z,102388.22
2022-12-01T22:27:11.867Z,102385.78
2022-12-01T22:29:43.062Z,102390.94
2022-12-01T22:32:37.581Z,102379.56
2022-12-01T22:35:28.134Z,102388.16
2022-12-01T22:38:02.365Z,102380.19
2022-12-01T22:40:40.046Z,102386.34
2022-12-01T22:43:28.070Z,102387.25
2022-12-01T22:46:21.585Z,102386.34
2022-12-01T22:48:52.220Z,102387.25
2022-12-01T22:51:48.019Z,102377.88
2022-12-01T22:54:33.344Z,102380.34
2022-12-01T22:57:14.406Z,102376.56
2022-12-01T22:59:46.305Z,102371.72
2022-12-01T23:02:22.028Z,102371.72
2022-12-01T23:04:54.435Z,102374.28
2022-12-01T23:07:29.160Z,102377.88
2022-12-01T23:10:00.084Z,102371.09
2022-12-01T23:12:31.143Z,102371.59
2022-12-01T23:15:08.233Z,102372.50
2022-12-01T23:17:39.054Z,102374.28
2022-12-01T23:20:25.679Z,102365.69
2022-12-01T23:22:55.309Z,102367.63
2022-12-01T23:25:25.229Z,102364.03
2022-12-01T23:27:55.198Z,102353.50
2022-12-01T23:30:25.036Z,102351.44
2022-12-01T23:33:02.864Z,102354.13
2022-12-01T23:35:36.012Z,102351.44
2022-12-01T23:38:04.417Z,102346.31
2022-12-01T23:40:36.111Z,102345.69
2022-12-01T23:43:16.782Z,102346.31
2022-12-01T23:45:46.764Z,102342.06
2022-12-01T23:48:20.365Z,102342.97
2022-12-01T23:50:51.844Z,102342.97
2022-12-01T23:53:28.093Z,102338.13
2022-12-01T23:55:57.940Z,102334.81
2022-12-01T23:58:26.405Z,102335.56
